sensor_id;sensor_type;location;lat;lon;timestamp;temperature;humidity
65985;HTU21D;52748;51.112;5.880;2023-05-25T00:00:17;22.57;51.59
65985;HTU21D;52748;51.112;5.880;2023-05-25T00:02:44;22.56;51.50
65985;HTU21D;52748;51.112;5.880;2023-05-25T00:05:12;22.54;51.53
65985;HTU21D;52748;51.112;5.880;2023-05-25T00:07:38;22.53;51.57
65985;HTU21D;52748;51.112;5.880;2023-05-25T00:10:05;22.53;51.67
65985;HTU21D;52748;51.112;5.880;2023-05-25T00:12:32;22.51;51.71
65985;HTU21D;52748;51.112;5.880;2023-05-25T00:14:58;22.54;51.66
65985;HTU21D;52748;51.112;5.880;2023-05-25T00:17:24;22.53;51.72
65985;HTU21D;52748;51.112;5.880;2023-05-25T00:19:50;22.52;51.75
65985;HTU21D;52748;51.112;5.880;2023-05-25T00:22:15;22.51;51.84
65985;HTU21D;52748;51.112;5.880;2023-05-25T00:24:42;22.50;51.83
65985;HTU21D;52748;51.112;5.880;2023-05-25T00:27:07;22.48;51.82
65985;HTU21D;52748;51.112;5.880;2023-05-25T00:29:34;22.48;51.82
65985;HTU21D;52748;51.112;5.880;2023-05-25T00:32:01;22.48;51.81
65985;HTU21D;52748;51.112;5.880;2023-05-25T00:34:27;22.48;51.79
65985;HTU21D;52748;51.112;5.880;2023-05-25T00:36:53;22.50;51.73
65985;HTU21D;52748;51.112;5.880;2023-05-25T00:39:20;22.49;51.72
65985;HTU21D;52748;51.112;5.880;2023-05-25T00:41:47;22.47;51.72
65985;HTU21D;52748;51.112;5.880;2023-05-25T00:44:14;22.47;51.79
65985;HTU21D;52748;51.112;5.880;2023-05-25T00:46:47;22.47;51.84
65985;HTU21D;52748;51.112;5.880;2023-05-25T00:49:14;22.46;51.84
65985;HTU21D;52748;51.112;5.880;2023-05-25T00:51:42;22.46;51.89
65985;HTU21D;52748;51.112;5.880;2023-05-25T00:54:14;22.48;51.88
65985;HTU21D;52748;51.112;5.880;2023-05-25T00:56:45;22.50;51.75
65985;HTU21D;52748;51.112;5.880;2023-05-25T01:00:00;22.51;51.61
65985;HTU21D;52748;51.112;5.880;2023-05-25T01:02:10;22.52;51.58
65985;HTU21D;52748;51.112;5.880;2023-05-25T01:04:48;22.52;51.62
65985;HTU21D;52748;51.112;5.880;2023-05-25T01:07:20;22.50;51.66
65985;HTU21D;52748;51.112;5.880;2023-05-25T01:09:55;22.50;51.63
65985;HTU21D;52748;51.112;5.880;2023-05-25T01:12:23;22.47;51.72
65985;HTU21D;52748;51.112;5.880;2023-05-25T01:14:53;22.46;51.82
65985;HTU21D;52748;51.112;5.880;2023-05-25T01:17:19;22.44;52.19
65985;HTU21D;52748;51.112;5.880;2023-05-25T01:19:48;22.47;52.17
65985;HTU21D;52748;51.112;5.880;2023-05-25T01:22:36;22.44;51.96
65985;HTU21D;52748;51.112;5.880;2023-05-25T01:25:21;22.42;51.98
65985;HTU21D;52748;51.112;5.880;2023-05-25T01:27:56;22.44;51.93
65985;HTU21D;52748;51.112;5.880;2023-05-25T01:30:32;22.41;51.95
65985;HTU21D;52748;51.112;5.880;2023-05-25T01:32:59;22.41;52.01
65985;HTU21D;52748;51.112;5.880;2023-05-25T01:35:27;22.40;52.05
65985;HTU21D;52748;51.112;5.880;2023-05-25T01:37:57;22.40;52.06
65985;HTU21D;52748;51.112;5.880;2023-05-25T01:40:23;22.38;51.98
65985;HTU21D;52748;51.112;5.880;2023-05-25T01:42:49;22.38;52.04
65985;HTU21D;52748;51.112;5.880;2023-05-25T01:45:15;22.38;52.08
65985;HTU21D;52748;51.112;5.880;2023-05-25T01:48:15;22.40;52.01
65985;HTU21D;52748;51.112;5.880;2023-05-25T01:50:56;22.38;51.99
65985;HTU21D;52748;51.112;5.880;2023-05-25T01:53:30;22.38;52.01
65985;HTU21D;52748;51.112;5.880;2023-05-25T01:56:08;22.38;52.04
65985;HTU21D;52748;51.112;5.880;2023-05-25T01:58:44;22.40;52.08
65985;HTU21D;52748;51.112;5.880;2023-05-25T02:01:13;22.40;51.85
65985;HTU21D;52748;51.112;5.880;2023-05-25T02:03:41;22.41;51.84
65985;HTU21D;52748;51.112;5.880;2023-05-25T02:06:08;22.39;51.91
65985;HTU21D;52748;51.112;5.880;2023-05-25T02:08:34;22.40;51.90
65985;HTU21D;52748;51.112;5.880;2023-05-25T02:11:00;22.41;51.78
65985;HTU21D;52748;51.112;5.880;2023-05-25T02:13:26;22.40;51.93
65985;HTU21D;52748;51.112;5.880;2023-05-25T02:15:52;22.42;52.04
65985;HTU21D;52748;51.112;5.880;2023-05-25T02:18:18;22.42;51.91
65985;HTU21D;52748;51.112;5.880;2023-05-25T02:20:44;22.39;51.90
65985;HTU21D;52748;51.112;5.880;2023-05-25T02:23:10;22.37;51.94
65985;HTU21D;52748;51.112;5.880;2023-05-25T02:25:37;22.37;52.04
65985;HTU21D;52748;51.112;5.880;2023-05-25T02:28:03;22.35;52.00
65985;HTU21D;52748;51.112;5.880;2023-05-25T02:30:29;22.35;52.09
65985;HTU21D;52748;51.112;5.880;2023-05-25T02:32:56;22.33;52.11
65985;HTU21D;52748;51.112;5.880;2023-05-25T02:35:22;22.34;52.15
65985;HTU21D;52748;51.112;5.880;2023-05-25T02:37:48;22.32;52.11
65985;HTU21D;52748;51.112;5.880;2023-05-25T02:40:16;22.33;52.11
65985;HTU21D;52748;51.112;5.880;2023-05-25T02:42:42;22.31;52.13
65985;HTU21D;52748;51.112;5.880;2023-05-25T02:45:09;22.31;52.28
65985;HTU21D;52748;51.112;5.880;2023-05-25T02:47:36;22.32;52.20
65985;HTU21D;52748;51.112;5.880;2023-05-25T02:50:03;22.32;52.18
65985;HTU21D;52748;51.112;5.880;2023-05-25T02:52:31;22.31;52.17
65985;HTU21D;52748;51.112;5.880;2023-05-25T02:54:58;22.31;52.27
65985;HTU21D;52748;51.112;5.880;2023-05-25T02:57:29;22.33;52.11
65985;HTU21D;52748;51.112;5.880;2023-05-25T02:59:57;22.34;51.93
65985;HTU21D;52748;51.112;5.880;2023-05-25T03:02:23;22.34;51.92
65985;HTU21D;52748;51.112;5.880;2023-05-25T03:04:50;22.32;52.09
65985;HTU21D;52748;51.112;5.880;2023-05-25T03:07:19;22.32;52.07
65985;HTU21D;52748;51.112;5.880;2023-05-25T03:09:50;22.33;52.13
65985;HTU21D;52748;51.112;5.880;2023-05-25T03:12:16;22.31;52.05
65985;HTU21D;52748;51.112;5.880;2023-05-25T03:14:42;22.29;52.08
65985;HTU21D;52748;51.112;5.880;2023-05-25T03:17:09;22.32;52.01
65985;HTU21D;52748;51.112;5.880;2023-05-25T03:19:35;22.31;52.04
65985;HTU21D;52748;51.112;5.880;2023-05-25T03:22:02;22.31;51.98
65985;HTU21D;52748;51.112;5.880;2023-05-25T03:24:29;22.29;52.08
65985;HTU21D;52748;51.112;5.880;2023-05-25T03:26:58;22.32;52.05
65985;HTU21D;52748;51.112;5.880;2023-05-25T03:29:24;22.29;52.09
65985;HTU21D;52748;51.112;5.880;2023-05-25T03:31:50;22.28;52.18
65985;HTU21D;52748;51.112;5.880;2023-05-25T03:34:18;22.26;52.26
65985;HTU21D;52748;51.112;5.880;2023-05-25T03:36:44;22.25;52.28
65985;HTU21D;52748;51.112;5.880;2023-05-25T03:39:13;22.23;52.18
65985;HTU21D;52748;51.112;5.880;2023-05-25T03:41:39;22.24;52.27
65985;HTU21D;52748;51.112;5.880;2023-05-25T03:44:08;22.23;52.19
65985;HTU21D;52748;51.112;5.880;2023-05-25T03:46:35;22.24;52.11
65985;HTU21D;52748;51.112;5.880;2023-05-25T03:49:01;22.26;51.97
65985;HTU21D;52748;51.112;5.880;2023-05-25T03:51:27;22.25;51.93
65985;HTU21D;52748;51.112;5.880;2023-05-25T03:53:54;22.27;52.03
65985;HTU21D;52748;51.112;5.880;2023-05-25T03:56:19;22.24;52.05
65985;HTU21D;52748;51.112;5.880;2023-05-25T03:58:46;22.25;52.08
65985;HTU21D;52748;51.112;5.880;2023-05-25T04:01:11;22.24;52.14
65985;HTU21D;52748;51.112;5.880;2023-05-25T04:03:38;22.23;52.39
65985;HTU21D;52748;51.112;5.880;2023-05-25T04:06:04;22.26;52.59
65985;HTU21D;52748;51.112;5.880;2023-05-25T04:08:29;22.26;52.33
65985;HTU21D;52748;51.112;5.880;2023-05-25T04:10:56;22.24;52.24
65985;HTU21D;52748;51.112;5.880;2023-05-25T04:13:22;22.25;52.18
65985;HTU21D;52748;51.112;5.880;2023-05-25T04:15:49;22.23;52.25
65985;HTU21D;52748;51.112;5.880;2023-05-25T04:18:19;22.23;52.20
65985;HTU21D;52748;51.112;5.880;2023-05-25T04:20:46;22.25;52.07
65985;HTU21D;52748;51.112;5.880;2023-05-25T04:23:13;22.25;52.04
65985;HTU21D;52748;51.112;5.880;2023-05-25T04:25:41;22.27;51.91
65985;HTU21D;52748;51.112;5.880;2023-05-25T04:28:07;22.26;51.87
65985;HTU21D;52748;51.112;5.880;2023-05-25T04:30:53;22.27;51.82
65985;HTU21D;52748;51.112;5.880;2023-05-25T04:33:42;22.25;51.97
65985;HTU21D;52748;51.112;5.880;2023-05-25T04:36:41;22.21;52.12
65985;HTU21D;52748;51.112;5.880;2023-05-25T04:39:10;22.21;52.14
65985;HTU21D;52748;51.112;5.880;2023-05-25T04:41:42;22.21;52.23
65985;HTU21D;52748;51.112;5.880;2023-05-25T04:44:09;22.22;52.14
65985;HTU21D;52748;51.112;5.880;2023-05-25T04:46:37;22.21;52.11
65985;HTU21D;52748;51.112;5.880;2023-05-25T04:49:04;22.21;52.15
65985;HTU21D;52748;51.112;5.880;2023-05-25T04:51:30;22.19;52.31
65985;HTU21D;52748;51.112;5.880;2023-05-25T04:53:57;22.19;52.27
65985;HTU21D;52748;51.112;5.880;2023-05-25T04:56:23;22.17;52.30
65985;HTU21D;52748;51.112;5.880;2023-05-25T04:58:52;22.17;52.36
65985;HTU21D;52748;51.112;5.880;2023-05-25T05:01:17;22.14;52.35
65985;HTU21D;52748;51.112;5.880;2023-05-25T05:03:45;22.16;52.36
65985;HTU21D;52748;51.112;5.880;2023-05-25T05:06:11;22.16;52.34
65985;HTU21D;52748;51.112;5.880;2023-05-25T05:08:37;22.13;52.36
65985;HTU21D;52748;51.112;5.880;2023-05-25T05:11:03;22.14;52.35
65985;HTU21D;52748;51.112;5.880;2023-05-25T05:13:29;22.16;52.36
65985;HTU21D;52748;51.112;5.880;2023-05-25T05:15:55;22.13;52.36
65985;HTU21D;52748;51.112;5.880;2023-05-25T05:18:22;22.14;52.39
65985;HTU21D;52748;51.112;5.880;2023-05-25T05:20:47;22.14;52.40
65985;HTU21D;52748;51.112;5.880;2023-05-25T05:23:13;22.12;51.81
65985;HTU21D;52748;51.112;5.880;2023-05-25T05:25:39;22.07;48.76
65985;HTU21D;52748;51.112;5.880;2023-05-25T05:28:05;21.95;47.47
65985;HTU21D;52748;51.112;5.880;2023-05-25T05:30:37;21.79;47.33
65985;HTU21D;52748;51.112;5.880;2023-05-25T05:33:04;21.63;47.24
65985;HTU21D;52748;51.112;5.880;2023-05-25T05:35:35;21.46;47.38
65985;HTU21D;52748;51.112;5.880;2023-05-25T05:38:08;21.31;47.80
65985;HTU21D;52748;51.112;5.880;2023-05-25T05:40:34;21.19;47.75
65985;HTU21D;52748;51.112;5.880;2023-05-25T05:43:00;21.05;48.03
65985;HTU21D;52748;51.112;5.880;2023-05-25T05:45:26;20.93;48.63
65985;HTU21D;52748;51.112;5.880;2023-05-25T05:47:52;20.81;48.62
65985;HTU21D;52748;51.112;5.880;2023-05-25T05:50:17;20.71;48.75
65985;HTU21D;52748;51.112;5.880;2023-05-25T05:52:44;20.60;49.10
65985;HTU21D;52748;51.112;5.880;2023-05-25T05:55:10;20.50;49.78
65985;HTU21D;52748;51.112;5.880;2023-05-25T05:57:38;20.53;51.88
65985;HTU21D;52748;51.112;5.880;2023-05-25T06:00:05;20.59;52.22
65985;HTU21D;52748;51.112;5.880;2023-05-25T06:02:41;20.70;51.59
65985;HTU21D;52748;51.112;5.880;2023-05-25T06:05:08;20.75;50.65
65985;HTU21D;52748;51.112;5.880;2023-05-25T06:07:37;20.85;51.77
65985;HTU21D;52748;51.112;5.880;2023-05-25T06:10:06;20.96;52.07
65985;HTU21D;52748;51.112;5.880;2023-05-25T06:12:33;21.10;52.38
65985;HTU21D;52748;51.112;5.880;2023-05-25T06:14:59;21.20;52.56
65985;HTU21D;52748;51.112;5.880;2023-05-25T06:17:27;21.33;52.46
65985;HTU21D;52748;51.112;5.880;2023-05-25T06:19:55;21.45;52.34
65985;HTU21D;52748;51.112;5.880;2023-05-25T06:22:21;21.58;52.27
65985;HTU21D;52748;51.112;5.880;2023-05-25T06:24:51;21.67;52.10
65985;HTU21D;52748;51.112;5.880;2023-05-25T06:27:17;21.78;52.05
65985;HTU21D;52748;51.112;5.880;2023-05-25T06:29:42;21.90;51.88
65985;HTU21D;52748;51.112;5.880;2023-05-25T06:32:08;21.98;51.69
65985;HTU21D;52748;51.112;5.880;2023-05-25T06:34:37;22.07;51.62
65985;HTU21D;52748;51.112;5.880;2023-05-25T06:37:04;22.16;51.57
65985;HTU21D;52748;51.112;5.880;2023-05-25T06:39:29;22.22;51.50
65985;HTU21D;52748;51.112;5.880;2023-05-25T06:41:55;22.28;51.47
65985;HTU21D;52748;51.112;5.880;2023-05-25T06:44:29;22.35;51.45
65985;HTU21D;52748;51.112;5.880;2023-05-25T06:46:59;22.40;51.42
65985;HTU21D;52748;51.112;5.880;2023-05-25T06:49:25;22.47;51.36
65985;HTU21D;52748;51.112;5.880;2023-05-25T06:51:51;22.52;51.32
65985;HTU21D;52748;51.112;5.880;2023-05-25T06:54:17;22.58;51.27
65985;HTU21D;52748;51.112;5.880;2023-05-25T06:56:44;22.65;51.10
65985;HTU21D;52748;51.112;5.880;2023-05-25T06:59:10;22.68;51.00
65985;HTU21D;52748;51.112;5.880;2023-05-25T07:01:36;22.71;51.04
65985;HTU21D;52748;51.112;5.880;2023-05-25T07:04:02;22.73;51.03
65985;HTU21D;52748;51.112;5.880;2023-05-25T07:06:28;22.77;51.03
65985;HTU21D;52748;51.112;5.880;2023-05-25T07:08:53;22.84;50.95
65985;HTU21D;52748;51.112;5.880;2023-05-25T07:11:22;22.86;50.88
65985;HTU21D;52748;51.112;5.880;2023-05-25T07:13:48;22.86;50.89
65985;HTU21D;52748;51.112;5.880;2023-05-25T07:16:14;22.90;50.87
65985;HTU21D;52748;51.112;5.880;2023-05-25T07:18:40;22.93;50.73
65985;HTU21D;52748;51.112;5.880;2023-05-25T07:21:07;22.94;50.62
65985;HTU21D;52748;51.112;5.880;2023-05-25T07:23:36;22.93;50.60
65985;HTU21D;52748;51.112;5.880;2023-05-25T07:26:02;22.97;50.50
65985;HTU21D;52748;51.112;5.880;2023-05-25T07:28:28;22.95;50.51
65985;HTU21D;52748;51.112;5.880;2023-05-25T07:30:54;22.98;50.39
65985;HTU21D;52748;51.112;5.880;2023-05-25T07:33:20;22.95;50.37
65985;HTU21D;52748;51.112;5.880;2023-05-25T07:35:45;22.94;50.49
65985;HTU21D;52748;51.112;5.880;2023-05-25T07:38:11;22.94;50.53
65985;HTU21D;52748;51.112;5.880;2023-05-25T07:40:37;22.94;50.50
65985;HTU21D;52748;51.112;5.880;2023-05-25T07:43:03;22.94;50.52
65985;HTU21D;52748;51.112;5.880;2023-05-25T07:45:29;22.91;50.57
65985;HTU21D;52748;51.112;5.880;2023-05-25T07:47:55;22.87;50.69
65985;HTU21D;52748;51.112;5.880;2023-05-25T07:50:21;22.85;50.76
65985;HTU21D;52748;51.112;5.880;2023-05-25T07:52:48;22.82;50.83
65985;HTU21D;52748;51.112;5.880;2023-05-25T07:55:14;22.81;50.88
65985;HTU21D;52748;51.112;5.880;2023-05-25T07:57:40;22.82;50.53
65985;HTU21D;52748;51.112;5.880;2023-05-25T08:00:06;22.80;48.24
65985;HTU21D;52748;51.112;5.880;2023-05-25T08:02:38;22.79;47.46
65985;HTU21D;52748;51.112;5.880;2023-05-25T08:05:04;22.76;46.99
65985;HTU21D;52748;51.112;5.880;2023-05-25T08:07:34;22.72;46.87
65985;HTU21D;52748;51.112;5.880;2023-05-25T08:10:01;22.71;46.90
65985;HTU21D;52748;51.112;5.880;2023-05-25T08:12:27;22.70;46.43
65985;HTU21D;52748;51.112;5.880;2023-05-25T08:14:54;22.71;46.54
65985;HTU21D;52748;51.112;5.880;2023-05-25T08:17:20;22.68;46.06
65985;HTU21D;52748;51.112;5.880;2023-05-25T08:19:46;22.67;46.25
65985;HTU21D;52748;51.112;5.880;2023-05-25T08:22:12;22.66;46.44
65985;HTU21D;52748;51.112;5.880;2023-05-25T08:24:38;22.66;46.17
65985;HTU21D;52748;51.112;5.880;2023-05-25T08:27:04;22.71;46.06
65985;HTU21D;52748;51.112;5.880;2023-05-25T08:29:30;22.71;45.99
65985;HTU21D;52748;51.112;5.880;2023-05-25T08:31:55;22.70;45.62
65985;HTU21D;52748;51.112;5.880;2023-05-25T08:34:22;22.70;45.48
65985;HTU21D;52748;51.112;5.880;2023-05-25T08:36:47;22.71;45.61
65985;HTU21D;52748;51.112;5.880;2023-05-25T08:39:13;22.70;46.04
65985;HTU21D;52748;51.112;5.880;2023-05-25T08:41:42;22.69;46.41
65985;HTU21D;52748;51.112;5.880;2023-05-25T08:44:09;22.69;46.90
65985;HTU21D;52748;51.112;5.880;2023-05-25T08:46:35;22.68;47.54
65985;HTU21D;52748;51.112;5.880;2023-05-25T08:49:09;22.72;47.93
65985;HTU21D;52748;51.112;5.880;2023-05-25T08:51:54;22.70;48.18
65985;HTU21D;52748;51.112;5.880;2023-05-25T08:54:29;22.70;48.37
65985;HTU21D;52748;51.112;5.880;2023-05-25T08:59:41;22.69;48.68
65985;HTU21D;52748;51.112;5.880;2023-05-25T09:04:53;22.70;48.86
65985;HTU21D;52748;51.112;5.880;2023-05-25T09:07:20;22.70;49.01
65985;HTU21D;52748;51.112;5.880;2023-05-25T09:09:46;22.69;49.05
65985;HTU21D;52748;51.112;5.880;2023-05-25T09:12:14;22.67;49.18
65985;HTU21D;52748;51.112;5.880;2023-05-25T09:14:40;22.69;49.27
65985;HTU21D;52748;51.112;5.880;2023-05-25T09:17:16;22.69;49.36
65985;HTU21D;52748;51.112;5.880;2023-05-25T09:19:43;22.69;49.42
65985;HTU21D;52748;51.112;5.880;2023-05-25T09:22:09;22.67;49.43
65985;HTU21D;52748;51.112;5.880;2023-05-25T09:24:36;22.68;49.56
65985;HTU21D;52748;51.112;5.880;2023-05-25T09:27:08;22.72;49.48
65985;HTU21D;52748;51.112;5.880;2023-05-25T09:29:35;22.72;49.47
65985;HTU21D;52748;51.112;5.880;2023-05-25T09:32:04;22.73;49.47
65985;HTU21D;52748;51.112;5.880;2023-05-25T09:34:31;22.70;49.57
65985;HTU21D;52748;51.112;5.880;2023-05-25T09:37:02;22.71;49.66
65985;HTU21D;52748;51.112;5.880;2023-05-25T09:39:29;22.67;49.79
65985;HTU21D;52748;51.112;5.880;2023-05-25T09:41:56;22.66;49.85
65985;HTU21D;52748;51.112;5.880;2023-05-25T09:44:22;22.65;49.96
65985;HTU21D;52748;51.112;5.880;2023-05-25T09:46:47;22.63;49.98
65985;HTU21D;52748;51.112;5.880;2023-05-25T09:49:13;22.63;50.08
65985;HTU21D;52748;51.112;5.880;2023-05-25T09:51:40;22.62;50.07
65985;HTU21D;52748;51.112;5.880;2023-05-25T09:54:08;22.62;49.08
65985;HTU21D;52748;51.112;5.880;2023-05-25T09:56:35;22.62;46.85
65985;HTU21D;52748;51.112;5.880;2023-05-25T09:59:02;22.63;46.11
65985;HTU21D;52748;51.112;5.880;2023-05-25T10:01:28;22.60;45.86
65985;HTU21D;52748;51.112;5.880;2023-05-25T10:03:54;22.58;46.21
65985;HTU21D;52748;51.112;5.880;2023-05-25T10:06:27;22.57;46.77
65985;HTU21D;52748;51.112;5.880;2023-05-25T10:08:55;22.57;46.33
65985;HTU21D;52748;51.112;5.880;2023-05-25T10:11:23;22.56;46.52
65985;HTU21D;52748;51.112;5.880;2023-05-25T10:13:52;22.54;46.71
65985;HTU21D;52748;51.112;5.880;2023-05-25T10:16:24;22.54;47.36
65985;HTU21D;52748;51.112;5.880;2023-05-25T10:18:54;22.52;48.21
65985;HTU21D;52748;51.112;5.880;2023-05-25T10:21:26;22.53;48.62
65985;HTU21D;52748;51.112;5.880;2023-05-25T10:24:00;22.54;48.73
65985;HTU21D;52748;51.112;5.880;2023-05-25T10:26:34;22.53;48.87
65985;HTU21D;52748;51.112;5.880;2023-05-25T10:29:02;22.55;49.03
65985;HTU21D;52748;51.112;5.880;2023-05-25T10:31:30;22.54;49.11
65985;HTU21D;52748;51.112;5.880;2023-05-25T10:33:58;22.54;49.23
65985;HTU21D;52748;51.112;5.880;2023-05-25T10:36:26;22.54;49.35
65985;HTU21D;52748;51.112;5.880;2023-05-25T10:38:53;22.53;49.44
65985;HTU21D;52748;51.112;5.880;2023-05-25T10:41:19;22.53;49.49
65985;HTU21D;52748;51.112;5.880;2023-05-25T10:43:46;22.54;49.56
65985;HTU21D;52748;51.112;5.880;2023-05-25T10:46:12;22.54;49.63
65985;HTU21D;52748;51.112;5.880;2023-05-25T10:48:45;22.55;49.72
65985;HTU21D;52748;51.112;5.880;2023-05-25T10:51:11;22.55;49.73
65985;HTU21D;52748;51.112;5.880;2023-05-25T10:53:37;22.57;49.71
65985;HTU21D;52748;51.112;5.880;2023-05-25T10:56:04;22.61;49.73
65985;HTU21D;52748;51.112;5.880;2023-05-25T10:58:31;22.60;49.78
65985;HTU21D;52748;51.112;5.880;2023-05-25T11:01:08;22.57;49.90
65985;HTU21D;52748;51.112;5.880;2023-05-25T11:06:20;22.55;50.06
65985;HTU21D;52748;51.112;5.880;2023-05-25T11:08:56;22.54;50.18
65985;HTU21D;52748;51.112;5.880;2023-05-25T11:14:29;22.58;50.20
65985;HTU21D;52748;51.112;5.880;2023-05-25T11:17:18;22.57;50.27
65985;HTU21D;52748;51.112;5.880;2023-05-25T11:22:17;22.62;50.32
65985;HTU21D;52748;51.112;5.880;2023-05-25T11:24:50;22.61;50.24
65985;HTU21D;52748;51.112;5.880;2023-05-25T11:27:23;22.60;50.37
65985;HTU21D;52748;51.112;5.880;2023-05-25T11:29:50;22.61;50.43
65985;HTU21D;52748;51.112;5.880;2023-05-25T11:32:16;22.57;50.43
65985;HTU21D;52748;51.112;5.880;2023-05-25T11:34:42;22.57;50.56
65985;HTU21D;52748;51.112;5.880;2023-05-25T11:37:19;22.56;50.66
65985;HTU21D;52748;51.112;5.880;2023-05-25T11:39:50;22.58;50.60
65985;HTU21D;52748;51.112;5.880;2023-05-25T11:42:18;22.60;50.56
65985;HTU21D;52748;51.112;5.880;2023-05-25T11:44:44;22.57;50.63
65985;HTU21D;52748;51.112;5.880;2023-05-25T11:47:11;22.57;50.69
65985;HTU21D;52748;51.112;5.880;2023-05-25T11:49:44;22.55;50.79
65985;HTU21D;52748;51.112;5.880;2023-05-25T11:52:13;22.54;50.88
65985;HTU21D;52748;51.112;5.880;2023-05-25T11:54:39;22.54;50.95
65985;HTU21D;52748;51.112;5.880;2023-05-25T11:57:17;22.55;51.01
65985;HTU21D;52748;51.112;5.880;2023-05-25T11:59:47;22.57;50.92
65985;HTU21D;52748;51.112;5.880;2023-05-25T12:02:14;22.58;50.89
65985;HTU21D;52748;51.112;5.880;2023-05-25T12:04:40;22.60;50.92
65985;HTU21D;52748;51.112;5.880;2023-05-25T12:07:07;22.58;51.04
65985;HTU21D;52748;51.112;5.880;2023-05-25T12:09:34;22.61;50.89
65985;HTU21D;52748;51.112;5.880;2023-05-25T12:12:04;22.60;50.95
65985;HTU21D;52748;51.112;5.880;2023-05-25T12:14:30;22.61;51.08
65985;HTU21D;52748;51.112;5.880;2023-05-25T12:16:59;22.60;51.13
65985;HTU21D;52748;51.112;5.880;2023-05-25T12:19:25;22.58;51.25
65985;HTU21D;52748;51.112;5.880;2023-05-25T12:21:51;22.57;51.34
65985;HTU21D;52748;51.112;5.880;2023-05-25T12:24:18;22.58;51.45
65985;HTU21D;52748;51.112;5.880;2023-05-25T12:26:51;22.62;50.86
65985;HTU21D;52748;51.112;5.880;2023-05-25T12:29:26;22.62;49.53
65985;HTU21D;52748;51.112;5.880;2023-05-25T12:31:52;22.61;48.40
65985;HTU21D;52748;51.112;5.880;2023-05-25T12:34:19;22.60;47.86
65985;HTU21D;52748;51.112;5.880;2023-05-25T12:36:47;22.60;47.09
65985;HTU21D;52748;51.112;5.880;2023-05-25T12:39:15;22.58;46.54
65985;HTU21D;52748;51.112;5.880;2023-05-25T12:41:45;22.56;46.83
65985;HTU21D;52748;51.112;5.880;2023-05-25T12:44:29;22.56;47.02
65985;HTU21D;52748;51.112;5.880;2023-05-25T12:47:19;22.55;47.08
65985;HTU21D;52748;51.112;5.880;2023-05-25T12:50:30;22.55;47.00
65985;HTU21D;52748;51.112;5.880;2023-05-25T12:52:41;22.55;47.11
65985;HTU21D;52748;51.112;5.880;2023-05-25T12:55:24;22.53;47.31
65985;HTU21D;52748;51.112;5.880;2023-05-25T12:57:56;22.53;47.83
65985;HTU21D;52748;51.112;5.880;2023-05-25T13:00:30;22.55;47.45
65985;HTU21D;52748;51.112;5.880;2023-05-25T13:02:56;22.55;47.82
65985;HTU21D;52748;51.112;5.880;2023-05-25T13:05:30;22.56;47.67
65985;HTU21D;52748;51.112;5.880;2023-05-25T13:08:00;22.56;47.57
65985;HTU21D;52748;51.112;5.880;2023-05-25T13:10:29;22.57;47.03
65985;HTU21D;52748;51.112;5.880;2023-05-25T13:12:55;22.57;46.86
65985;HTU21D;52748;51.112;5.880;2023-05-25T13:15:23;22.57;46.31
65985;HTU21D;52748;51.112;5.880;2023-05-25T13:17:51;22.56;46.60
65985;HTU21D;52748;51.112;5.880;2023-05-25T13:20:21;22.57;46.39
65985;HTU21D;52748;51.112;5.880;2023-05-25T13:22:48;22.56;45.99
65985;HTU21D;52748;51.112;5.880;2023-05-25T13:25:15;22.60;45.87
65985;HTU21D;52748;51.112;5.880;2023-05-25T13:27:46;22.57;45.48
65985;HTU21D;52748;51.112;5.880;2023-05-25T13:30:13;22.57;45.28
65985;HTU21D;52748;51.112;5.880;2023-05-25T13:32:41;22.62;45.10
65985;HTU21D;52748;51.112;5.880;2023-05-25T13:35:11;22.63;44.80
65985;HTU21D;52748;51.112;5.880;2023-05-25T13:37:43;22.63;44.49
65985;HTU21D;52748;51.112;5.880;2023-05-25T13:40:09;22.60;44.55
65985;HTU21D;52748;51.112;5.880;2023-05-25T13:42:35;22.57;45.04
65985;HTU21D;52748;51.112;5.880;2023-05-25T13:45:01;22.55;44.45
65985;HTU21D;52748;51.112;5.880;2023-05-25T13:47:27;22.55;44.71
65985;HTU21D;52748;51.112;5.880;2023-05-25T13:49:53;22.55;44.95
65985;HTU21D;52748;51.112;5.880;2023-05-25T13:52:19;22.56;45.39
65985;HTU21D;52748;51.112;5.880;2023-05-25T13:54:45;22.57;45.54
65985;HTU21D;52748;51.112;5.880;2023-05-25T13:57:10;22.60;45.44
65985;HTU21D;52748;51.112;5.880;2023-05-25T13:59:37;22.64;45.08
65985;HTU21D;52748;51.112;5.880;2023-05-25T14:02:03;22.62;44.89
65985;HTU21D;52748;51.112;5.880;2023-05-25T14:04:29;22.64;44.87
65985;HTU21D;52748;51.112;5.880;2023-05-25T14:06:55;22.61;44.81
65985;HTU21D;52748;51.112;5.880;2023-05-25T14:09:21;22.61;44.86
65985;HTU21D;52748;51.112;5.880;2023-05-25T14:11:47;22.62;44.82
65985;HTU21D;52748;51.112;5.880;2023-05-25T14:14:13;22.63;44.54
65985;HTU21D;52748;51.112;5.880;2023-05-25T14:16:39;22.62;44.09
65985;HTU21D;52748;51.112;5.880;2023-05-25T14:19:05;22.61;44.01
65985;HTU21D;52748;51.112;5.880;2023-05-25T14:21:31;22.61;44.39
65985;HTU21D;52748;51.112;5.880;2023-05-25T14:23:58;22.64;44.41
65985;HTU21D;52748;51.112;5.880;2023-05-25T14:26:24;22.64;44.22
65985;HTU21D;52748;51.112;5.880;2023-05-25T14:28:52;22.61;44.63
65985;HTU21D;52748;51.112;5.880;2023-05-25T14:31:18;22.62;44.64
65985;HTU21D;52748;51.112;5.880;2023-05-25T14:33:44;22.62;46.39
65985;HTU21D;52748;51.112;5.880;2023-05-25T14:36:10;22.61;45.97
65985;HTU21D;52748;51.112;5.880;2023-05-25T14:38:36;22.62;46.34
65985;HTU21D;52748;51.112;5.880;2023-05-25T14:41:02;22.64;46.35
65985;HTU21D;52748;51.112;5.880;2023-05-25T14:43:28;22.63;47.07
65985;HTU21D;52748;51.112;5.880;2023-05-25T14:45:55;22.65;47.41
65985;HTU21D;52748;51.112;5.880;2023-05-25T14:48:21;22.67;47.80
65985;HTU21D;52748;51.112;5.880;2023-05-25T14:50:50;22.67;48.14
65985;HTU21D;52748;51.112;5.880;2023-05-25T14:53:16;22.68;48.75
65985;HTU21D;52748;51.112;5.880;2023-05-25T14:55:42;22.71;49.27
65985;HTU21D;52748;51.112;5.880;2023-05-25T14:58:08;22.73;49.70
65985;HTU21D;52748;51.112;5.880;2023-05-25T15:00:34;22.77;50.14
65985;HTU21D;52748;51.112;5.880;2023-05-25T15:03:00;22.80;50.35
65985;HTU21D;52748;51.112;5.880;2023-05-25T15:05:25;22.82;50.65
65985;HTU21D;52748;51.112;5.880;2023-05-25T15:07:51;22.85;50.69
65985;HTU21D;52748;51.112;5.880;2023-05-25T15:10:17;22.87;50.95
65985;HTU21D;52748;51.112;5.880;2023-05-25T15:12:43;22.90;51.02
65985;HTU21D;52748;51.112;5.880;2023-05-25T15:15:09;22.92;51.10
65985;HTU21D;52748;51.112;5.880;2023-05-25T15:17:36;22.94;51.16
65985;HTU21D;52748;51.112;5.880;2023-05-25T15:20:02;22.95;51.11
65985;HTU21D;52748;51.112;5.880;2023-05-25T15:22:28;22.96;51.17
65985;HTU21D;52748;51.112;5.880;2023-05-25T15:24:53;22.99;51.11
65985;HTU21D;52748;51.112;5.880;2023-05-25T15:27:19;22.97;51.25
65985;HTU21D;52748;51.112;5.880;2023-05-25T15:29:45;22.99;51.23
65985;HTU21D;52748;51.112;5.880;2023-05-25T15:32:12;22.99;51.21
65985;HTU21D;52748;51.112;5.880;2023-05-25T15:34:39;22.98;51.82